createdAt,value
2022-11-14T00:00:55.640Z,21.03
2022-11-14T00:03:22.440Z,20.33
2022-11-14T00:05:49.420Z,19.40
2022-11-14T00:08:25.233Z,19.77
2022-11-14T00:10:52.195Z,21.47
2022-11-14T00:13:19.944Z,20.53
2022-11-14T00:15:50.309Z,20.73
2022-11-14T00:18:17.774Z,20.33
2022-11-14T00:20:47.251Z,18.60
2022-11-14T00:23:14.029Z,19.53
2022-11-14T00:25:40.905Z,20.30
2022-11-14T00:28:08.381Z,18.80
2022-11-14T00:30:35.193Z,18.83
2022-11-14T00:33:01.973Z,20.23
2022-11-14T00:35:28.772Z,20.47
2022-11-14T00:37:55.525Z,20.23
2022-11-14T00:40:22.330Z,20.53
2022-11-14T00:42:49.142Z,19.90
2022-11-14T00:45:16.003Z,19.67
2022-11-14T00:47:42.787Z,21.30
2022-11-14T00:50:10.264Z,19.83
2022-11-14T00:52:37.020Z,20.93
2022-11-14T00:55:04.088Z,20.37
2022-11-14T00:57:30.880Z,20.03
2022-11-14T00:59:57.781Z,18.83
2022-11-14T01:02:24.573Z,18.80
2022-11-14T01:04:51.432Z,19.93
2022-11-14T01:07:18.252Z,19.73
2022-11-14T01:09:45.089Z,18.47
2022-11-14T01:12:11.874Z,19.97
2022-11-14T01:14:40.231Z,20.30
2022-11-14T01:17:08.124Z,20.13
2022-11-14T01:19:34.986Z,21.70
2022-11-14T01:22:06.217Z,20.33
2022-11-14T01:24:34.028Z,20.40
2022-11-14T01:27:00.945Z,20.43
2022-11-14T01:29:27.782Z,20.53
2022-11-14T01:31:54.626Z,20.70
2022-11-14T01:34:21.519Z,20.67
2022-11-14T01:36:48.278Z,21.37
2022-11-14T01:39:16.097Z,20.57
2022-11-14T01:41:43.090Z,21.40
2022-11-14T01:44:16.617Z,22.40
2022-11-14T01:46:47.976Z,20.63
2022-11-14T01:49:19.228Z,20.97
2022-11-14T01:51:46.985Z,21.13
2022-11-14T01:54:25.501Z,21.67
2022-11-14T01:56:55.494Z,19.53
2022-11-14T01:59:24.778Z,21.80
2022-11-14T02:01:52.788Z,20.43
2022-11-14T02:04:33.781Z,20.97
2022-11-14T02:07:02.678Z,20.20
2022-11-14T02:09:37.525Z,19.67
2022-11-14T02:12:06.646Z,20.97
2022-11-14T02:14:33.704Z,18.90
2022-11-14T02:17:27.851Z,21.03
2022-11-14T02:19:50.073Z,20.10
2022-11-14T02:22:16.910Z,21.20
2022-11-14T02:24:43.890Z,21.07
2022-11-14T02:27:10.777Z,22.73
2022-11-14T02:29:37.705Z,19.70
2022-11-14T02:32:09.460Z,20.57
2022-11-14T02:34:37.454Z,22.33
2022-11-14T02:37:04.236Z,21.50
2022-11-14T02:39:31.070Z,19.50
2022-11-14T02:41:57.882Z,20.87
2022-11-14T02:44:24.639Z,21.40
2022-11-14T02:46:51.442Z,19.73
2022-11-14T02:49:18.314Z,21.70
2022-11-14T02:51:45.169Z,20.73
2022-11-14T02:54:11.924Z,22.40
2022-11-14T02:56:38.783Z,20.33
2022-11-14T02:59:05.555Z,20.57
2022-11-14T03:01:32.402Z,21.13
2022-11-14T03:03:59.328Z,19.37
2022-11-14T03:06:26.084Z,20.30
2022-11-14T03:08:52.837Z,18.93
2022-11-14T03:11:19.643Z,17.90
2022-11-14T03:13:46.421Z,20.10
2022-11-14T03:16:13.475Z,19.97
2022-11-14T03:18:40.245Z,18.23
2022-11-14T03:21:16.188Z,19.30
2022-11-14T03:23:43.180Z,20.67
2022-11-14T03:26:10.604Z,19.27
2022-11-14T03:28:37.500Z,20.67
2022-11-14T03:31:04.701Z,21.73
2022-11-14T03:33:32.087Z,22.47
2022-11-14T03:35:58.906Z,16.87
2022-11-14T03:38:25.698Z,18.30
2022-11-14T03:40:52.533Z,18.63
2022-11-14T03:43:19.956Z,20.93
2022-11-14T03:45:47.012Z,17.63
2022-11-14T03:48:14.001Z,22.97
2022-11-14T03:50:41.439Z,17.63
2022-11-14T03:53:08.257Z,16.63
2022-11-14T03:55:35.125Z,18.83
2022-11-14T03:58:01.911Z,15.30
2022-11-14T04:00:28.924Z,15.43
2022-11-14T04:02:58.608Z,17.80
2022-11-14T04:05:25.463Z,15.60
2022-11-14T04:07:52.253Z,19.27
2022-11-14T04:10:19.148Z,17.07
2022-11-14T04:12:49.927Z,19.37
2022-11-14T04:15:17.234Z,18.23
2022-11-14T04:17:44.414Z,17.30
2022-11-14T04:20:11.689Z,18.30
2022-11-14T04:22:38.494Z,17.37
2022-11-14T04:25:05.924Z,17.50
2022-11-14T04:27:32.777Z,16.93
2022-11-14T04:29:59.525Z,18.10
2022-11-14T04:32:26.302Z,18.17
2022-11-14T04:34:53.185Z,18.47
2022-11-14T04:37:19.977Z,18.03
2022-11-14T04:39:46.774Z,17.40
2022-11-14T04:42:13.564Z,17.30
2022-11-14T04:44:40.412Z,16.93
2022-11-14T04:47:07.225Z,17.07
2022-11-14T04:49:34.055Z,16.67
2022-11-14T04:52:00.861Z,17.47
2022-11-14T04:54:27.702Z,17.00
2022-11-14T04:56:54.473Z,16.13
2022-11-14T04:59:21.430Z,16.67
2022-11-14T05:01:48.390Z,15.77
2022-11-14T05:04:15.312Z,16.33
2022-11-14T05:06:42.158Z,16.33
2022-11-14T05:09:09.982Z,16.33
2022-11-14T05:11:36.750Z,16.97
2022-11-14T05:14:03.538Z,19.23
2022-11-14T05:16:30.338Z,20.83
2022-11-14T05:18:57.126Z,18.87
2022-11-14T05:21:23.884Z,18.40
2022-11-14T05:23:50.710Z,18.67
2022-11-14T05:26:17.956Z,20.03
2022-11-14T05:28:44.902Z,18.20
2022-11-14T05:31:19.387Z,18.53
2022-11-14T05:33:47.052Z,17.40
2022-11-14T05:36:15.249Z,19.77
2022-11-14T05:38:42.444Z,19.30
2022-11-14T05:41:13.451Z,22.00
2022-11-14T05:43:40.418Z,20.40
2022-11-14T05:46:09.492Z,18.83
2022-11-14T05:48:36.290Z,21.80
2022-11-14T05:51:04.046Z,21.37
2022-11-14T05:53:32.059Z,22.37
2022-11-14T05:56:06.382Z,20.90
2022-11-14T05:58:33.662Z,22.43
2022-11-14T06:01:11.847Z,21.47
2022-11-14T06:03:46.214Z,20.10
2022-11-14T06:06:14.804Z,21.07
2022-11-14T06:08:41.755Z,20.80
2022-11-14T06:11:19.172Z,22.03
2022-11-14T06:13:46.092Z,23.87
2022-11-14T06:16:14.727Z,23.73
2022-11-14T06:18:41.699Z,25.50
2022-11-14T06:21:14.656Z,24.20
2022-11-14T06:23:41.685Z,24.50
2022-11-14T06:26:25.630Z,25.10
2022-11-14T06:28:52.815Z,24.20
2022-11-14T06:31:20.542Z,25.00
2022-11-14T06:33:47.460Z,24.20
2022-11-14T06:36:14.598Z,26.73
2022-11-14T06:38:41.751Z,24.33
2022-11-14T06:41:16.691Z,22.47
2022-11-14T06:43:45.053Z,22.17
2022-11-14T06:46:13.573Z,23.17
2022-11-14T06:48:40.614Z,26.87
2022-11-14T06:51:07.552Z,25.63
2022-11-14T06:53:35.146Z,26.83
2022-11-14T06:56:07.172Z,25.07
2022-11-14T06:58:35.804Z,26.23
2022-11-14T07:01:14.130Z,29.20
2022-11-14T07:03:41.573Z,25.67
2022-11-14T07:06:09.133Z,26.87
2022-11-14T07:08:36.113Z,25.63
2022-11-14T07:11:06.988Z,26.08
2022-11-14T07:13:33.870Z,26.70
2022-11-14T07:16:00.975Z,25.73
2022-11-14T07:18:29.951Z,25.30
2022-11-14T07:21:05.311Z,27.57
2022-11-14T07:23:32.857Z,27.33
2022-11-14T07:26:07.157Z,26.87
2022-11-14T07:28:42.193Z,26.63
2022-11-14T07:31:12.493Z,26.60
2022-11-14T07:33:39.477Z,28.90
2022-11-14T07:36:06.536Z,28.37
2022-11-14T07:38:33.933Z,28.80
2022-11-14T07:41:05.455Z,29.57
2022-11-14T07:43:32.294Z,27.30
2022-11-14T07:46:00.544Z,30.53
2022-11-14T07:48:28.976Z,28.43
2022-11-14T07:51:03.046Z,29.43
2022-11-14T07:53:30.017Z,32.87
2022-11-14T07:55:57.606Z,27.90
2022-11-14T07:58:24.586Z,27.70
2022-11-14T08:00:51.536Z,26.93
2022-11-14T08:03:18.418Z,28.63
2022-11-14T08:05:45.254Z,28.73
2022-11-14T08:08:12.123Z,26.60
2022-11-14T08:10:38.964Z,27.23
2022-11-14T08:15:53.178Z,28.40
2022-11-14T08:18:20.121Z,28.47
2022-11-14T08:20:47.096Z,27.57
2022-11-14T08:23:14.149Z,26.37
2022-11-14T08:25:41.438Z,28.00
2022-11-14T08:28:08.707Z,25.90
2022-11-14T08:30:35.743Z,27.33
2022-11-14T08:33:03.823Z,27.60
2022-11-14T08:35:30.779Z,27.10
2022-11-14T08:37:58.650Z,27.60
2022-11-14T08:40:25.575Z,27.13
2022-11-14T08:42:52.601Z,27.60
2022-11-14T08:45:19.518Z,28.17
2022-11-14T08:47:53.133Z,27.73
2022-11-14T08:50:20.087Z,29.27
2022-11-14T08:52:51.366Z,27.40
2022-11-14T08:55:19.214Z,26.30
2022-11-14T08:57:49.362Z,27.40
2022-11-14T09:00:17.336Z,30.20
2022-11-14T09:02:44.294Z,29.03
2022-11-14T09:05:11.233Z,27.93
2022-11-14T09:07:38.201Z,32.87
2022-11-14T09:10:05.652Z,29.83
2022-11-14T09:12:32.786Z,30.03
2022-11-14T09:14:59.806Z,29.60
2022-11-14T09:17:26.743Z,28.87
2022-11-14T09:19:54.149Z,28.83
2022-11-14T09:22:21.074Z,27.77
2022-11-14T09:24:49.533Z,30.93
2022-11-14T09:27:17.265Z,28.07
2022-11-14T09:29:44.541Z,28.87
2022-11-14T09:32:11.430Z,30.37
2022-11-14T09:34:43.020Z,28.57
2022-11-14T09:37:10.103Z,30.77
2022-11-14T09:39:40.664Z,27.27
2022-11-14T09:42:52.961Z,28.90
2022-11-14T09:45:19.987Z,27.63
2022-11-14T09:48:00.814Z,28.37
2022-11-14T09:50:35.991Z,27.97
2022-11-14T09:53:25.239Z,27.53
2022-11-14T09:55:52.148Z,26.27
2022-11-14T09:58:22.264Z,27.80
2022-11-14T10:00:51.226Z,28.13
2022-11-14T10:03:24.007Z,27.50
2022-11-14T10:06:03.158Z,25.87
2022-11-14T10:08:54.773Z,26.83
2022-11-14T10:11:42.302Z,25.47
2022-11-14T10:14:27.842Z,25.40
2022-11-14T10:16:58.278Z,25.23
2022-11-14T10:19:50.017Z,28.10
2022-11-14T10:22:53.535Z,25.57
2022-11-14T10:25:25.278Z,25.23
2022-11-14T10:28:05.526Z,25.20
2022-11-14T10:30:58.526Z,26.33
2022-11-14T10:33:34.440Z,25.77
2022-11-14T10:36:06.033Z,24.13
2022-11-14T10:39:00.447Z,25.37
2022-11-14T10:41:56.670Z,23.57
2022-11-14T10:44:16.659Z,38.77
2022-11-14T10:46:49.035Z,46.53
2022-11-14T10:49:22.621Z,46.20
2022-11-14T10:51:57.487Z,46.30
2022-11-14T10:54:35.112Z,43.97
2022-11-14T10:57:02.076Z,41.83
2022-11-14T10:59:29.065Z,43.00
2022-11-14T11:01:57.378Z,45.63
2022-11-14T11:04:37.144Z,44.20
2022-11-14T11:07:10.049Z,45.63
2022-11-14T11:09:57.160Z,40.60
2022-11-14T11:12:24.654Z,45.90
2022-11-14T11:15:14.500Z,47.70
2022-11-14T11:17:53.854Z,21.80
2022-11-14T11:20:30.264Z,20.77
2022-11-14T11:23:14.045Z,23.00
2022-11-14T11:25:40.942Z,22.00
2022-11-14T11:28:12.568Z,22.10
2022-11-14T11:30:39.526Z,22.80
2022-11-14T11:33:39.135Z,21.20
2022-11-14T11:36:17.746Z,20.90
2022-11-14T11:38:44.712Z,22.10
2022-11-14T11:44:21.840Z,21.43
2022-11-14T11:46:59.299Z,22.30
2022-11-14T11:49:41.825Z,21.63
2022-11-14T11:52:30.098Z,21.60
2022-11-14T11:55:14.166Z,21.60
2022-11-14T11:57:56.848Z,20.70
2022-11-14T12:00:23.958Z,22.40
2022-11-14T12:02:52.430Z,22.80
2022-11-14T12:05:28.365Z,22.97
2022-11-14T12:08:04.332Z,23.90
2022-11-14T12:10:33.167Z,23.40
2022-11-14T12:13:05.200Z,23.53
2022-11-14T12:16:13.419Z,22.47
2022-11-14T12:19:05.286Z,23.30
2022-11-14T12:21:58.379Z,25.23
2022-11-14T12:25:19.050Z,23.23
2022-11-14T12:28:03.148Z,23.43
2022-11-14T12:30:30.202Z,23.53
2022-11-14T12:33:03.046Z,23.33
2022-11-14T12:35:34.346Z,25.23
2022-11-14T12:38:03.483Z,23.73
2022-11-14T12:40:35.399Z,22.47
2022-11-14T12:43:02.809Z,24.83
2022-11-14T12:45:41.919Z,24.93
2022-11-14T12:48:23.677Z,25.80
2022-11-14T12:50:50.718Z,23.00
2022-11-14T12:53:39.387Z,24.27
2022-11-14T12:56:15.666Z,25.80
2022-11-14T12:59:04.242Z,27.67
2022-11-14T13:01:31.168Z,23.80
2022-11-14T13:04:22.998Z,26.27
2022-11-14T13:07:13.970Z,24.73
2022-11-14T13:10:18.309Z,24.53
2022-11-14T13:13:27.604Z,23.73
2022-11-14T13:16:14.552Z,25.43
2022-11-14T13:19:10.096Z,24.43
2022-11-14T13:21:46.556Z,25.17
2022-11-14T13:24:14.383Z,24.63
2022-11-14T13:26:42.802Z,23.43
2022-11-14T13:29:35.726Z,25.27
2022-11-14T13:32:02.581Z,23.43
2022-11-14T13:34:57.764Z,24.13
2022-11-14T13:37:33.516Z,26.13
2022-11-14T13:40:06.874Z,26.67
2022-11-14T13:42:39.948Z,27.03
2022-11-14T13:45:25.403Z,25.87
2022-11-14T13:48:07.370Z,24.53
2022-11-14T13:50:36.925Z,26.40
2022-11-14T13:53:11.317Z,25.73
2022-11-14T13:55:50.510Z,25.17
2022-11-14T13:58:47.110Z,25.47
2022-11-14T14:01:29.286Z,26.47
2022-11-14T14:04:35.874Z,25.13
2022-11-14T14:07:15.049Z,25.10
2022-11-14T14:09:53.498Z,28.20
2022-11-14T14:12:45.292Z,26.47
2022-11-14T14:15:19.067Z,26.47
2022-11-14T14:17:54.506Z,25.07
2022-11-14T14:20:42.262Z,27.07
2022-11-14T14:23:21.305Z,26.53
2022-11-14T14:26:03.125Z,25.70
2022-11-14T14:29:06.058Z,25.87
2022-11-14T14:31:38.789Z,25.53
2022-11-14T14:34:44.311Z,24.87
2022-11-14T14:37:25.118Z,26.63
2022-11-14T14:40:01.284Z,27.73
2022-11-14T14:42:49.419Z,26.27
2022-11-14T14:45:18.147Z,27.17
2022-11-14T14:47:49.978Z,28.07
2022-11-14T14:50:24.827Z,25.97
2022-11-14T14:53:01.400Z,27.60
2022-11-14T14:55:35.728Z,26.10
2022-11-14T14:58:22.687Z,27.23
2022-11-14T15:00:59.982Z,25.30
2022-11-14T15:03:36.570Z,26.23
2022-11-14T15:06:05.808Z,26.37
2022-11-14T15:08:36.394Z,27.27
2022-11-14T15:11:03.284Z,26.63
2022-11-14T15:13:30.462Z,28.23
2022-11-14T15:15:58.305Z,29.80
2022-11-14T15:18:32.087Z,30.27
2022-11-14T15:21:09.344Z,28.83
2022-11-14T15:23:39.208Z,29.93
2022-11-14T15:26:20.322Z,30.97
2022-11-14T15:28:47.160Z,29.40
2022-11-14T15:31:20.896Z,31.07
2022-11-14T15:34:21.502Z,29.53
2022-11-14T15:37:10.302Z,29.60
2022-11-14T15:39:37.809Z,31.73
2022-11-14T15:42:17.005Z,33.27
2022-11-14T15:44:43.941Z,33.97
2022-11-14T15:47:22.190Z,32.17
2022-11-14T15:50:22.166Z,34.43
2022-11-14T15:53:20.807Z,35.27
2022-11-14T15:55:47.704Z,36.53
2022-11-14T15:58:27.770Z,36.47
2022-11-14T16:00:55.482Z,36.20
2022-11-14T16:03:22.654Z,38.17
2022-11-14T16:05:49.499Z,36.57
2022-11-14T16:08:16.435Z,37.30
2022-11-14T16:10:43.279Z,39.80
2022-11-14T16:13:11.237Z,38.87
2022-11-14T16:15:38.117Z,40.63
2022-11-14T16:18:05.410Z,42.23
2022-11-14T16:20:37.336Z,43.77
2022-11-14T16:23:05.030Z,39.87
2022-11-14T16:25:32.180Z,42.50
2022-11-14T16:27:59.128Z,41.30
2022-11-14T16:30:26.281Z,42.70
2022-11-14T16:32:53.215Z,42.30
2022-11-14T16:35:24.673Z,39.07
2022-11-14T16:37:51.790Z,42.03
2022-11-14T16:40:23.399Z,40.83
2022-11-14T16:42:50.480Z,39.80
2022-11-14T16:45:18.011Z,40.67
2022-11-14T16:47:44.900Z,39.60
2022-11-14T16:50:11.790Z,38.70
2022-11-14T16:52:42.007Z,39.47
2022-11-14T16:55:09.848Z,35.10
2022-11-14T16:57:37.283Z,35.80
2022-11-14T17:00:06.159Z,33.70
2022-11-14T17:02:33.054Z,33.80
2022-11-14T17:04:59.890Z,36.03
2022-11-14T17:07:30.616Z,34.13
2022-11-14T17:09:57.554Z,33.93
2022-11-14T17:12:24.348Z,33.27
2022-11-14T17:14:51.177Z,31.80
2022-11-14T17:17:18.098Z,33.83
2022-11-14T17:19:47.703Z,31.67
2022-11-14T17:22:15.005Z,33.33
2022-11-14T17:24:42.443Z,33.53
2022-11-14T17:27:09.428Z,32.50
2022-11-14T17:29:36.190Z,33.67
2022-11-14T17:32:04.240Z,34.43
2022-11-14T17:34:32.134Z,33.47
2022-11-14T17:36:59.133Z,34.30
2022-11-14T17:39:26.338Z,36.30
2022-11-14T17:41:53.250Z,32.20
2022-11-14T17:44:20.005Z,35.07
2022-11-14T17:46:47.461Z,35.90
2022-11-14T17:49:14.306Z,35.10
2022-11-14T17:51:41.073Z,30.43
2022-11-14T17:54:08.900Z,33.33
2022-11-14T17:56:35.750Z,31.20
2022-11-14T17:59:03.051Z,31.33
2022-11-14T18:01:31.431Z,33.20
2022-11-14T18:04:04.465Z,31.83
2022-11-14T18:06:33.340Z,35.43
2022-11-14T18:09:04.856Z,35.03
2022-11-14T18:11:31.781Z,34.13
2022-11-14T18:13:58.661Z,35.30
2022-11-14T18:16:31.425Z,34.93
2022-11-14T18:19:06.283Z,33.87
2022-11-14T18:21:33.171Z,34.17
2022-11-14T18:24:00.206Z,33.40
2022-11-14T18:26:28.331Z,31.53
2022-11-14T18:28:58.946Z,32.20
2022-11-14T18:31:25.761Z,34.43
2022-11-14T18:33:52.533Z,34.00
2022-11-14T18:36:20.583Z,34.50
2022-11-14T18:38:47.440Z,33.23
2022-11-14T18:41:15.837Z,33.57
2022-11-14T18:43:44.441Z,34.97
2022-11-14T18:46:13.052Z,35.17
2022-11-14T18:48:40.233Z,37.23
2022-11-14T18:51:18.361Z,34.47
2022-11-14T18:53:45.199Z,34.00
2022-11-14T18:56:17.067Z,37.20
2022-11-14T18:58:44.376Z,35.53
2022-11-14T19:01:15.818Z,34.87
2022-11-14T19:03:42.677Z,35.87
2022-11-14T19:06:10.690Z,34.20
2022-11-14T19:08:37.598Z,35.33
2022-11-14T19:11:06.684Z,32.63
2022-11-14T19:13:33.856Z,32.83
2022-11-14T19:16:02.225Z,33.13
2022-11-14T19:18:29.449Z,32.70
2022-11-14T19:20:59.999Z,33.67
2022-11-14T19:23:27.028Z,32.67
2022-11-14T19:25:59.688Z,33.67
2022-11-14T19:28:27.228Z,32.93
2022-11-14T19:30:53.992Z,34.60
2022-11-14T19:33:20.823Z,34.33
2022-11-14T19:35:47.654Z,35.17
2022-11-14T19:38:14.437Z,34.00
2022-11-14T19:40:41.196Z,36.13
2022-11-14T19:43:09.195Z,33.23
2022-11-14T19:45:36.106Z,35.47
2022-11-14T19:48:03.199Z,37.40
2022-11-14T19:50:30.037Z,38.30
2022-11-14T19:52:56.822Z,39.40
2022-11-14T19:55:23.606Z,39.63
2022-11-14T19:57:50.449Z,40.67
2022-11-14T20:00:17.656Z,39.70
2022-11-14T20:02:47.309Z,41.30
2022-11-14T20:05:14.165Z,42.43
2022-11-14T20:07:40.945Z,42.00
2022-11-14T20:10:07.957Z,43.27
2022-11-14T20:12:35.037Z,41.67
2022-11-14T20:15:01.927Z,42.00
2022-11-14T20:17:28.753Z,39.20
2022-11-14T20:19:55.797Z,39.90
2022-11-14T20:22:22.629Z,38.03
2022-11-14T20:24:49.526Z,38.90
2022-11-14T20:27:16.770Z,38.63
2022-11-14T20:29:43.563Z,37.23
2022-11-14T20:32:15.485Z,36.10
2022-11-14T20:34:42.684Z,37.97
2022-11-14T20:37:11.404Z,34.60
2022-11-14T20:39:38.888Z,36.97
2022-11-14T20:42:05.748Z,32.90
2022-11-14T20:44:32.606Z,34.00
2022-11-14T20:46:59.380Z,32.03
2022-11-14T20:49:26.165Z,32.80
2022-11-14T20:51:53.059Z,32.43
2022-11-14T20:54:19.875Z,32.13
2022-11-14T20:56:46.670Z,33.23
2022-11-14T20:59:13.532Z,33.27
2022-11-14T21:01:43.738Z,33.93
2022-11-14T21:04:11.048Z,34.30
2022-11-14T21:06:37.964Z,34.83
2022-11-14T21:09:04.753Z,35.27
2022-11-14T21:11:31.502Z,36.37
2022-11-14T21:14:01.754Z,34.43
2022-11-14T21:16:35.320Z,33.93
2022-11-14T21:19:02.397Z,34.07
2022-11-14T21:21:30.437Z,36.33
2022-11-14T21:23:57.306Z,36.13
2022-11-14T21:26:28.720Z,35.53
2022-11-14T21:28:57.109Z,35.47
2022-11-14T21:31:34.492Z,37.33
2022-11-14T21:34:02.453Z,35.90
2022-11-14T21:36:44.375Z,37.37
2022-11-14T21:39:15.906Z,34.83
2022-11-14T21:41:43.893Z,36.60
2022-11-14T21:44:13.014Z,35.57
2022-11-14T21:46:40.761Z,36.23
2022-11-14T21:49:07.611Z,37.27
2022-11-14T21:51:34.467Z,37.17
2022-11-14T21:54:05.222Z,36.00
2022-11-14T21:56:33.212Z,37.30
2022-11-14T21:59:21.597Z,36.13
2022-11-14T22:02:08.071Z,35.33
2022-11-14T22:04:35.264Z,37.17
2022-11-14T22:07:03.186Z,38.20
2022-11-14T22:09:30.175Z,37.50
2022-11-14T22:11:57.060Z,34.27
2022-11-14T22:14:23.892Z,39.67
2022-11-14T22:16:50.683Z,36.90
2022-11-14T22:19:18.908Z,38.40
2022-11-14T22:21:45.951Z,37.33
2022-11-14T22:24:12.786Z,39.07
2022-11-14T22:26:40.483Z,37.37
2022-11-14T22:29:07.879Z,40.33
2022-11-14T22:31:34.855Z,39.73
2022-11-14T22:34:01.650Z,41.27
2022-11-14T22:36:28.656Z,39.63
2022-11-14T22:38:56.320Z,41.40
2022-11-14T22:41:31.958Z,41.03
2022-11-14T22:43:59.892Z,40.47
2022-11-14T22:46:27.541Z,40.47
2022-11-14T22:48:54.652Z,42.23
2022-11-14T22:51:25.325Z,38.57
2022-11-14T22:53:56.401Z,41.30
2022-11-14T22:56:28.273Z,39.87
2022-11-14T22:58:55.334Z,41.37
2022-11-14T23:01:25.006Z,38.80
2022-11-14T23:03:56.356Z,40.20
2022-11-14T23:06:23.676Z,41.63
2022-11-14T23:08:50.872Z,40.77
2022-11-14T23:11:20.556Z,39.63
2022-11-14T23:13:48.551Z,40.63
2022-11-14T23:16:17.155Z,38.23
2022-11-14T23:18:44.004Z,39.83
2022-11-14T23:21:18.481Z,39.43
2022-11-14T23:23:45.348Z,39.93
2022-11-14T23:26:16.182Z,39.67
2022-11-14T23:28:43.065Z,40.80
2022-11-14T23:31:10.969Z,39.73
2022-11-14T23:33:37.784Z,42.40
2022-11-14T23:36:04.867Z,40.53
2022-11-14T23:38:31.775Z,40.23
2022-11-14T23:40:59.907Z,39.43
2022-11-14T23:43:26.915Z,38.70
2022-11-14T23:45:53.848Z,42.40
2022-11-14T23:48:21.198Z,44.67
2022-11-14T23:50:51.999Z,42.10
2022-11-14T23:53:18.960Z,43.73
2022-11-14T23:55:59.265Z,44.37
2022-11-14T23:58:26.793Z,42.00
